createdAt,value
2018-12-21T00:03:17.120Z,100115.00
2018-12-21T00:07:23.786Z,100115.07
2018-12-21T00:11:29.957Z,100110.70
2018-12-21T00:15:36.078Z,100102.50
2018-12-21T00:19:42.147Z,100098.41
2018-12-21T00:23:48.441Z,100103.59
2018-12-21T00:27:54.691Z,100087.81
2018-12-21T00:32:05.851Z,100080.97
2018-12-21T00:40:38.384Z,100069.72
2018-12-21T00:44:44.508Z,100061.72
2018-12-21T00:48:50.672Z,100061.02
2018-12-21T00:52:56.826Z,100053.63
2018-12-21T00:57:03.732Z,100045.97
2018-12-21T01:01:09.955Z,100058.27
2018-12-21T01:05:16.800Z,100064.27
2018-12-21T01:09:23.254Z,100072.77
2018-12-21T01:13:29.057Z,100063.30
2018-12-21T01:17:35.011Z,100055.88
2018-12-21T01:21:42.554Z,100052.20
2018-12-21T01:25:50.799Z,100056.72
2018-12-21T01:29:57.607Z,100051.20
2018-12-21T01:34:03.451Z,100051.93
2018-12-21T01:38:09.961Z,100048.37
2018-12-21T01:42:15.686Z,100053.63
2018-12-21T01:46:21.572Z,100048.25
2018-12-21T01:50:27.631Z,100050.65
2018-12-21T01:54:33.574Z,100045.47
2018-12-21T01:58:40.481Z,100054.33
2018-12-21T02:02:46.739Z,100035.92
2018-12-21T02:06:53.296Z,100030.74
2018-12-21T02:10:59.373Z,100019.53
2018-12-21T02:15:06.000Z,100012.72
2018-12-21T02:19:11.912Z,100007.81
2018-12-21T02:23:18.027Z,99997.44
2018-12-21T02:27:23.871Z,99989.29
2018-12-21T02:31:30.834Z,99988.50
2018-12-21T02:35:37.376Z,99987.77
2018-12-21T02:39:43.668Z,99985.05
2018-12-21T02:43:50.314Z,99985.87
2018-12-21T02:47:57.102Z,99970.20
2018-12-21T02:52:05.672Z,99957.78
2018-12-21T02:56:11.040Z,99947.06
2018-12-21T03:00:17.161Z,99939.05
2018-12-21T03:04:23.075Z,99942.61
2018-12-21T03:12:46.889Z,99928.77
2018-12-21T03:16:53.155Z,99916.30
2018-12-21T03:21:00.219Z,99918.84
2018-12-21T03:25:06.243Z,99914.98
2018-12-21T03:29:12.230Z,99900.88
2018-12-21T03:33:18.473Z,99893.32
2018-12-21T03:37:24.742Z,99888.79
2018-12-21T03:41:30.845Z,99875.16
2018-12-21T03:45:38.374Z,99874.55
2018-12-21T03:49:45.821Z,99857.20
2018-12-21T03:53:52.783Z,99856.61
2018-12-21T03:57:59.487Z,99850.63
2018-12-21T04:02:05.521Z,99846.61
2018-12-21T04:06:12.138Z,99828.30
2018-12-21T04:10:17.932Z,99830.22
2018-12-21T04:14:23.866Z,99831.06
2018-12-21T04:18:29.733Z,99835.86
2018-12-21T04:22:35.773Z,99824.25
2018-12-21T04:26:42.847Z,99827.98
2018-12-21T04:30:48.695Z,99828.20
2018-12-21T04:34:55.759Z,99819.13
2018-12-21T04:39:02.105Z,99817.81
2018-12-21T04:43:09.542Z,99821.03
2018-12-21T04:47:16.058Z,99838.59
2018-12-21T04:51:22.174Z,99818.45
2018-12-21T04:55:28.316Z,99814.00
2018-12-21T04:59:34.787Z,99800.02
2018-12-21T05:03:40.608Z,99781.63
2018-12-21T05:07:46.726Z,99788.59
2018-12-21T05:11:53.152Z,99776.08
2018-12-21T05:15:58.790Z,99756.72
2018-12-21T05:20:05.819Z,99753.62
2018-12-21T05:24:11.849Z,99756.37
2018-12-21T05:28:17.710Z,99742.50
2018-12-21T05:32:23.769Z,99740.45
2018-12-21T05:36:29.914Z,99737.70
2018-12-21T05:40:35.783Z,99731.84
2018-12-21T05:44:41.795Z,99723.11
2018-12-21T05:48:47.436Z,99714.74
2018-12-21T05:53:00.593Z,99728.14
2018-12-21T05:57:01.482Z,99687.74
2018-12-21T06:01:07.150Z,99699.56
2018-12-21T06:05:13.707Z,99688.94
2018-12-21T06:09:20.333Z,99674.00
2018-12-21T06:13:26.243Z,99651.91
2018-12-21T06:17:32.315Z,99650.14
2018-12-21T06:21:39.103Z,99640.42
2018-12-21T06:25:45.430Z,99623.00
2018-12-21T06:29:51.843Z,99626.95
2018-12-21T06:33:57.735Z,99613.68
2018-12-21T06:38:04.910Z,99605.80
2018-12-21T06:42:11.360Z,99581.09
2018-12-21T06:46:17.408Z,99577.03
2018-12-21T06:50:23.519Z,99568.09
2018-12-21T06:54:29.794Z,99554.95
2018-12-21T06:58:35.880Z,99546.95
2018-12-21T07:02:42.054Z,99552.20
2018-12-21T07:06:48.229Z,99532.62
2018-12-21T07:10:54.712Z,99538.94
2018-12-21T07:15:01.399Z,99520.30
2018-12-21T07:19:07.311Z,99522.59
2018-12-21T07:23:13.356Z,99509.91
2018-12-21T07:27:20.437Z,99503.22
2018-12-21T07:35:40.505Z,99497.24
2018-12-21T07:39:47.967Z,99497.96
2018-12-21T07:43:54.689Z,99475.75
2018-12-21T07:48:00.847Z,99462.72
2018-12-21T07:52:07.006Z,99471.45
2018-12-21T07:56:13.286Z,99437.03
2018-12-21T08:00:19.577Z,99439.53
2018-12-21T08:04:25.746Z,99436.56
2018-12-21T08:08:31.504Z,99427.70
2018-12-21T08:12:37.263Z,99425.66
2018-12-21T08:16:43.010Z,99427.06
2018-12-21T08:20:48.656Z,99424.17
2018-12-21T08:24:54.351Z,99412.34
2018-12-21T08:28:59.873Z,99410.20
2018-12-21T08:33:05.521Z,99410.42
2018-12-21T08:37:11.195Z,99407.30
2018-12-21T08:41:17.423Z,99406.33
2018-12-21T08:45:23.161Z,99407.17
2018-12-21T08:49:29.260Z,99383.98
2018-12-21T08:53:36.228Z,99376.09
2018-12-21T08:57:42.338Z,99364.50
2018-12-21T09:01:48.381Z,99351.09
2018-12-21T09:05:56.501Z,99335.72
2018-12-21T09:10:02.609Z,99324.93
2018-12-21T09:14:09.531Z,99321.36
2018-12-21T09:18:15.450Z,99307.94
2018-12-21T09:22:21.178Z,99302.20
2018-12-21T09:26:26.811Z,99286.39
2018-12-21T09:30:32.856Z,99277.05
2018-12-21T09:34:38.643Z,99270.34
2018-12-21T09:38:45.338Z,99249.21
2018-12-21T09:42:50.904Z,99231.13
2018-12-21T09:46:56.505Z,99215.08
2018-12-21T09:51:02.398Z,99223.11
2018-12-21T09:55:08.933Z,99197.66
2018-12-21T09:59:14.572Z,99205.83
2018-12-21T10:03:21.673Z,99207.84
2018-12-21T10:07:27.921Z,99191.36
2018-12-21T10:11:34.915Z,99175.72
2018-12-21T10:15:40.920Z,99173.73
2018-12-21T10:19:46.735Z,99168.34
2018-12-21T10:23:52.909Z,99162.04
2018-12-21T10:27:58.659Z,99154.06
2018-12-21T10:32:04.509Z,99149.59
2018-12-21T10:36:11.954Z,99118.23
2018-12-21T10:40:18.193Z,99115.47
2018-12-21T10:44:23.877Z,99116.97
2018-12-21T10:48:29.774Z,99103.98
2018-12-21T10:52:35.772Z,99110.98
2018-12-21T10:56:41.748Z,99101.39
2018-12-21T11:00:48.429Z,99085.63
2018-12-21T11:04:55.377Z,99072.05
2018-12-21T11:09:02.845Z,99073.28
2018-12-21T11:13:08.884Z,99061.70
2018-12-21T11:17:14.967Z,99049.56
2018-12-21T11:21:22.146Z,99027.95
2018-12-21T11:25:28.472Z,99032.03
2018-12-21T11:29:34.666Z,99025.92
2018-12-21T11:33:41.405Z,99031.43
2018-12-21T11:37:47.452Z,99019.50
2018-12-21T11:41:53.388Z,99002.44
2018-12-21T11:45:59.304Z,98990.56
2018-12-21T11:50:08.082Z,99007.20
2018-12-21T11:54:14.709Z,99007.65
2018-12-21T11:58:21.433Z,99000.23
2018-12-21T12:02:27.558Z,99001.53
2018-12-21T12:06:33.813Z,98994.31
2018-12-21T12:10:39.998Z,98994.48
2018-12-21T12:14:45.911Z,98988.30
2018-12-21T12:18:51.986Z,98995.90
2018-12-21T12:22:57.610Z,99002.02
2018-12-21T12:27:04.739Z,99014.56
2018-12-21T12:31:11.626Z,99012.94
2018-12-21T12:35:19.091Z,99006.55
2018-12-21T12:39:25.438Z,99010.50
2018-12-21T12:43:31.515Z,99013.41
2018-12-21T12:47:38.436Z,99003.50
2018-12-21T12:51:44.319Z,99015.94
2018-12-21T12:55:51.273Z,99028.45
2018-12-21T12:59:57.120Z,99020.06
2018-12-21T13:04:03.048Z,99020.16
2018-12-21T13:08:09.401Z,99024.65
2018-12-21T13:12:15.371Z,99024.48
2018-12-21T13:16:21.503Z,99025.13
2018-12-21T13:20:27.456Z,99010.98
2018-12-21T13:24:34.195Z,99011.66
2018-12-21T13:28:40.215Z,99007.88
2018-12-21T13:32:47.127Z,99014.15
2018-12-21T13:36:53.209Z,99001.80
2018-12-21T13:40:59.838Z,98992.25
2018-12-21T13:45:07.672Z,99015.94
2018-12-21T13:49:15.539Z,99000.70
2018-12-21T13:53:22.163Z,99011.09
2018-12-21T13:57:28.257Z,99005.34
2018-12-21T14:01:34.081Z,99020.53
2018-12-21T14:05:39.682Z,99016.57
2018-12-21T14:09:48.107Z,99029.72
2018-12-21T14:13:54.882Z,99022.11
2018-12-21T14:18:00.988Z,99019.80
2018-12-21T14:22:07.354Z,99023.70
2018-12-21T14:26:13.427Z,99023.58
2018-12-21T14:30:19.206Z,99031.39
2018-12-21T14:34:25.455Z,99026.97
2018-12-21T14:38:31.373Z,99031.30
2018-12-21T14:42:37.398Z,99035.26
2018-12-21T14:46:43.844Z,99039.34
2018-12-21T14:50:50.136Z,99035.28
2018-12-21T14:54:56.292Z,99039.92
2018-12-21T14:59:03.323Z,99050.48
2018-12-21T15:03:09.554Z,99060.05
2018-12-21T15:07:15.757Z,99047.24
2018-12-21T15:11:22.244Z,99051.13
2018-12-21T15:15:28.907Z,99071.87
2018-12-21T15:19:34.843Z,99066.19
2018-12-21T15:23:40.920Z,99068.31
2018-12-21T15:27:47.256Z,99067.83
2018-12-21T15:31:53.372Z,99077.28
2018-12-21T15:35:59.690Z,99065.74
2018-12-21T15:40:07.526Z,99075.84
2018-12-21T15:44:13.544Z,99067.43
2018-12-21T15:48:19.675Z,99047.30
2018-12-21T15:52:25.850Z,99045.94
2018-12-21T15:56:32.236Z,99045.45
2018-12-21T16:00:38.623Z,99045.41
2018-12-21T16:04:45.546Z,99046.22
2018-12-21T16:08:51.558Z,99041.09
2018-12-21T16:12:57.654Z,99054.94
2018-12-21T16:17:03.611Z,99045.09
2018-12-21T16:21:09.782Z,99052.58
2018-12-21T16:25:16.147Z,99060.62
2018-12-21T16:29:22.217Z,99065.41
2018-12-21T16:33:28.424Z,99079.27
2018-12-21T16:37:34.295Z,99087.95
2018-12-21T16:41:40.935Z,99095.04
2018-12-21T16:45:57.906Z,99085.82
2018-12-21T16:50:04.543Z,99078.56
2018-12-21T16:54:10.530Z,99075.77
2018-12-21T16:58:16.691Z,99094.11
2018-12-21T17:02:22.420Z,99083.86
2018-12-21T17:06:28.261Z,99092.17
2018-12-21T17:10:35.068Z,99096.46
2018-12-21T17:14:41.590Z,99085.75
2018-12-21T17:18:47.956Z,99085.95
2018-12-21T17:22:58.029Z,99088.63
2018-12-21T17:27:04.495Z,99114.91
2018-12-21T17:31:14.653Z,99109.97
2018-12-21T17:35:20.528Z,99125.51
2018-12-21T17:39:27.738Z,99139.25
2018-12-21T17:43:33.403Z,99148.02
2018-12-21T17:47:39.508Z,99154.47
2018-12-21T17:51:45.581Z,99166.89
2018-12-21T17:55:51.704Z,99171.02
2018-12-21T17:59:58.124Z,99199.30
2018-12-21T18:04:35.853Z,99186.30
2018-12-21T18:08:42.643Z,99181.34
2018-12-21T18:12:49.113Z,99189.27
2018-12-21T18:16:55.333Z,99196.53
2018-12-21T18:21:01.980Z,99200.86
2018-12-21T18:25:19.848Z,99212.11
2018-12-21T18:29:27.327Z,99208.83
2018-12-21T18:33:34.708Z,99223.89
2018-12-21T18:37:56.080Z,99220.95
2018-12-21T18:42:02.323Z,99235.83
2018-12-21T18:46:09.193Z,99232.54
2018-12-21T18:50:16.775Z,99219.83
2018-12-21T18:54:23.600Z,99238.34
2018-12-21T18:58:30.119Z,99234.63
2018-12-21T19:02:36.593Z,99255.35
2018-12-21T19:06:42.849Z,99246.93
2018-12-21T19:10:50.017Z,99252.61
2018-12-21T19:14:56.183Z,99259.94
2018-12-21T19:19:02.239Z,99253.64
2018-12-21T19:23:08.264Z,99241.09
2018-12-21T19:27:14.462Z,99244.77
2018-12-21T19:31:20.951Z,99244.77
2018-12-21T19:35:29.993Z,99240.47
2018-12-21T19:39:36.234Z,99248.63
2018-12-21T19:43:42.588Z,99248.95
2018-12-21T19:47:48.779Z,99265.22
2018-12-21T19:51:55.637Z,99270.00
2018-12-21T19:56:20.672Z,99273.00
2018-12-21T20:00:26.680Z,99277.97
2018-12-21T20:04:32.714Z,99289.89
2018-12-21T20:08:39.618Z,99280.30
2018-12-21T20:12:45.307Z,99289.05
2018-12-21T20:16:51.272Z,99297.50
2018-12-21T20:20:57.590Z,99303.83
2018-12-21T20:25:05.966Z,99299.02
2018-12-21T20:29:12.748Z,99300.19
2018-12-21T20:33:19.022Z,99291.23
2018-12-21T20:37:25.845Z,99303.19
2018-12-21T20:41:32.555Z,99290.91
2018-12-21T20:45:38.528Z,99299.86
2018-12-21T20:49:46.299Z,99298.02
2018-12-21T20:53:54.691Z,99289.56
2018-12-21T20:58:10.255Z,99293.53
2018-12-21T21:02:17.272Z,99299.19
2018-12-21T21:06:23.735Z,99316.20
2018-12-21T21:10:30.736Z,99318.53
2018-12-21T21:18:53.342Z,99320.11
2018-12-21T21:22:59.868Z,99329.19
2018-12-21T21:27:06.273Z,99337.28
2018-12-21T21:31:13.510Z,99340.38
2018-12-21T21:35:19.627Z,99351.09
2018-12-21T21:39:25.920Z,99354.70
2018-12-21T21:43:32.104Z,99370.18
2018-12-21T21:47:39.173Z,99368.53
2018-12-21T21:51:45.379Z,99372.46
2018-12-21T21:55:51.684Z,99380.84
2018-12-21T21:59:57.797Z,99387.19
2018-12-21T22:04:04.768Z,99389.47
2018-12-21T22:08:11.487Z,99397.77
2018-12-21T22:12:17.950Z,99406.27
2018-12-21T22:16:25.104Z,99412.12
2018-12-21T22:20:31.294Z,99417.94
2018-12-21T22:24:39.341Z,99419.38
2018-12-21T22:28:45.322Z,99420.11
2018-12-21T22:32:51.767Z,99415.05
2018-12-21T22:36:57.902Z,99406.59
2018-12-21T22:41:04.473Z,99409.28
2018-12-21T22:45:11.085Z,99401.13
2018-12-21T22:49:17.310Z,99395.08
2018-12-21T22:53:23.155Z,99395.04
2018-12-21T22:57:29.203Z,99396.41
2018-12-21T23:01:35.367Z,99394.04
2018-12-21T23:05:41.368Z,99388.46
2018-12-21T23:09:47.087Z,99401.18
2018-12-21T23:13:54.246Z,99412.33
2018-12-21T23:18:03.035Z,99414.62
2018-12-21T23:22:09.545Z,99414.58
2018-12-21T23:26:15.687Z,99418.87
2018-12-21T23:30:21.618Z,99407.44
2018-12-21T23:34:27.606Z,99418.83
2018-12-21T23:38:34.219Z,99402.26
2018-12-21T23:42:40.509Z,99417.62
2018-12-21T23:46:46.554Z,99406.11
2018-12-21T23:50:52.815Z,99406.27
2018-12-21T23:54:58.831Z,99413.08
2018-12-21T23:59:04.671Z,99412.20
